• Join FlightAware (Why Join?)
  • Login
  • US Flag 
07:19PM EDT


 

Airport Tracker/Info


-or-


 

Live Flight TrackerFlight Track Log ✈ SWA2236 ✈ 15-Jul-2013 ✈ KOAK - KLAS

Flight Track Log - Related Links

Times and Time Zones

All times are in EDT time to prevent confusion due to time zone crossing. See the SWA2236 flight status page for this flight to view local times or setup timezone preferences in your user account.

Time Position Orientation Groundspeed Altitude Reporting Facility
EDT Latitude Longitude Course Direction KTS MPH feet Rate Location/Type
12:18PM 37.7500 -122.2833 107° East 196 226 1,900  Level Northern Cal TRACON
12:19PM 37.7500 -122.3500 270° West 208 239 4,800 2,700 Climbing Northern Cal TRACON
12:20PM 37.7000 -122.3833 208° Southwest 254 292 7,400 3,000 Climbing Northern Cal TRACON
12:21PM 37.6333 -122.4167 202° Southwest 284 327 10,800 2,820 Climbing Northern Cal TRACON
12:22PM 37.5764 -122.4333 193° South 301 346 11,900 2,700 Climbing Oakland Center
12:23PM 37.5042 -122.3758 148° Southeast 347 399 15,100 2,880 Climbing Oakland Center
12:24PM 37.2362 -122.2282 107° East  Level FlightAware Approximate
12:24PM 37.4761 -122.2539 106° East 363 418 17,900  Level Oakland Center
12:25PM 37.4472 -122.1269 106° East 377 434 20,600 2,340 Climbing Oakland Center
12:26PM 37.4164 -121.9958 106° East 389 448 22,700 2,100 Climbing Oakland Center
12:27PM 37.3842 -121.8561 106° East 413 475 25,000 2,160 Climbing Oakland Center
12:28PM 37.3483 -121.7006 106° East 430 495 27,200 1,920 Climbing Oakland Center
12:29PM 37.3133 -121.5547 107° East 437 503 29,000 1,980 Climbing Oakland Center
12:30PM 37.2792 -121.4053 106° East 444 511 31,300 1,920 Climbing Oakland Center
12:31PM 37.2436 -121.2594 107° East 439 505 33,000 780 Climbing Oakland Center
12:32PM 37.2011 -121.0844 107° East 438 504 33,000  Level Oakland Center
12:33PM 37.1656 -120.9397 107° East 437 503 33,000  Level Oakland Center
12:34PM 37.1308 -120.7958 107° East 434 499 33,000  Level Oakland Center
12:35PM 37.0958 -120.6517 107° East 434 499 33,000  Level Oakland Center
12:36PM 37.0597 -120.5092 108° East 432 497 33,000  Level Oakland Center
12:37PM 37.0425 -120.3603 98° East 434 499 33,000  Level Oakland Center
12:38PM 37.0353 -120.2075 93° East 442 509 33,000  Level Oakland Center
12:39PM 37.0256 -120.0472 94° East 438 504 33,000  Level Oakland Center
12:40PM 37.0178 -119.8944 94° East 439 505 33,000  Level Oakland Center
12:41PM 37.0092 -119.7456 94° East 432 497 33,000  Level Oakland Center
12:42PM 37.0003 -119.5919 94° East 439 505 33,000  Level Oakland Center
12:43PM 36.9908 -119.4417 94° East 435 501 33,000  Level Oakland Center
12:44PM 36.9808 -119.2586 94° East 439 505 33,000  Level Oakland Center
12:45PM 36.9708 -119.1069 95° East 438 504 33,000  Level Oakland Center
12:46PM 36.9614 -118.9533 94° East 443 510 33,000  Level Oakland Center
12:47PM 36.9517 -118.7986 94° East 447 514 33,000  Level Oakland Center
12:48PM 36.9414 -118.6450 95° East 445 512 33,000  Level Oakland Center
12:49PM 36.9303 -118.4819 95° East 444 511 33,000 -180 Level Oakland Center
12:50PM 36.9197 -118.3292 95° East 443 510 32,700 -660 Descending Oakland Center
12:51PM 36.9089 -118.1775 95° East 441 507 31,700 -840 Descending Oakland Center
12:52PM 36.8994 -118.0289 94° East 434 499 31,000 -360 Descending Oakland Center
12:54PM 36.8892 -117.8800 95° East 432 497 31,000  Level Oakland Center
12:55PM 36.8769 -117.7297 96° East 436 502 31,000  Level Oakland Center
12:56PM 36.8256 -117.5658 111° Southeast 425 489 31,000  Level Oakland Center
12:57PM 36.7769 -117.4347 115° Southeast 420 483 31,000  Level Oakland Center
12:58PM 36.7294 -117.3022 114° Southeast 421 484 31,000  Level Oakland Center
12:59PM 36.6794 -117.1681 115° Southeast 425 489 31,000  Level Oakland Center
01:00PM 36.6292 -117.0339 115° Southeast 427 491 31,000 -120 Level Oakland Center
01:01PM 36.5803 -116.9014 115° Southeast 424 488 30,800 -840 Descending Oakland Center
01:02PM 36.5308 -116.7719 115° Southeast 420 483 29,400 -1,680 Descending Oakland Center
01:03PM 36.4842 -116.6461 115° Southeast 407 468 27,400 -1,860 Descending Oakland Center
01:04PM 36.4175 -116.4644 114° Southeast 392 451 24,700 -1,980 Descending Los Angeles Center
01:05PM 36.3650 -116.3258 115° Southeast 376 433 22,500 -1,920 Descending Los Angeles Center
01:06PM 36.3217 -116.2142 116° Southeast 365 420 20,800 -1,800 Descending Los Angeles Center
01:07PM 36.2775 -116.0975 115° Southeast 347 399 18,900 -1,800 Descending Los Angeles Center
01:08PM 36.2358 -115.9933 116° Southeast 338 389 17,200 -1,440 Descending Los Angeles Center
01:09PM 36.1961 -115.8850 114° Southeast 327 376 16,000 -1,200 Descending Los Angeles Center
01:10PM 36.1633 -115.7850 112° Southeast 314 361 14,700 -1,440 Descending Los Angeles Center
01:11PM 36.1303 -115.6806 111° Southeast 302 348 13,100 -840 Descending Los Angeles Center
01:13PM 36.0997 -115.5889 112° Southeast 291 335 13,000 -60 Descending Los Angeles Center
01:14PM 36.0728 -115.5061 112° Southeast 255 293 13,000 -360 Level Los Angeles Center
01:15PM 36.0483 -115.4278 111° Southeast 247 284 12,300 -780 Descending Los Angeles Center
01:16PM 36.0272 -115.3475 108° East 247 284 11,400 -960 Descending Los Angeles Center
01:17PM 36.0225 -115.2603 94° East 249 287 10,400 -1,200 Descending Los Angeles Center
01:18PM 36.0158 -115.1694 95° East 250 288 9,100 -1,200 Descending Los Angeles Center
01:19PM 36.0111 -115.0886 94° East 237 273 8,000 -1,020 Descending Los Angeles Center
01:20PM 36.0061 -115.0053 94° East 203 234 7,000 -1,020 Descending Los Angeles Center
01:21PM 36.0131 -114.9389 83° East 213 245 5,900 -1,020 Descending Los Angeles Center
01:22PM 36.0592 -114.9503 349° North 210 242 4,900 -1,020 Descending Los Angeles Center
01:23PM 36.0744 -115.0064 289° West 192 221 3,800 -1,020 Descending Los Angeles Center
01:24PM 36.0725 -115.0817 268° West 164 189 2,800 -780 Descending Los Angeles Center
01:25PM 36.0736 -115.1200 272° West 170 196 2,200 -600 Descending Los Angeles Center
01:27PM 36.0667 -115.1500 270° West  Level FlightAware Approximate